sensor_id;sensor_type;location;lat;lon;timestamp;P1;durP1;ratioP1;P2;durP2;ratioP2
24034;SDS011;12242;50.952;4.678;2022-09-21T00:01:29;8.77;;;2.33;;
24034;SDS011;12242;50.952;4.678;2022-09-21T00:04:01;5.25;;;2.80;;
24034;SDS011;12242;50.952;4.678;2022-09-21T00:06:30;8.95;;;3.33;;
24034;SDS011;12242;50.952;4.678;2022-09-21T00:08:59;6.63;;;2.80;;
24034;SDS011;12242;50.952;4.678;2022-09-21T00:11:29;7.07;;;3.00;;
24034;SDS011;12242;50.952;4.678;2022-09-21T00:14:02;6.60;;;2.80;;
24034;SDS011;12242;50.952;4.678;2022-09-21T00:16:36;9.98;;;2.88;;
24034;SDS011;12242;50.952;4.678;2022-09-21T00:19:05;5.38;;;2.90;;
24034;SDS011;12242;50.952;4.678;2022-09-21T00:21:33;5.13;;;2.70;;
24034;SDS011;12242;50.952;4.678;2022-09-21T00:24:01;5.50;;;2.53;;
24034;SDS011;12242;50.952;4.678;2022-09-21T00:26:30;5.70;;;2.97;;
24034;SDS011;12242;50.952;4.678;2022-09-21T00:29:01;11.07;;;2.70;;
24034;SDS011;12242;50.952;4.678;2022-09-21T00:31:29;5.07;;;2.63;;
24034;SDS011;12242;50.952;4.678;2022-09-21T00:34:01;6.00;;;3.00;;
24034;SDS011;12242;50.952;4.678;2022-09-21T00:36:29;6.13;;;3.00;;
24034;SDS011;12242;50.952;4.678;2022-09-21T00:38:58;5.50;;;2.85;;
24034;SDS011;12242;50.952;4.678;2022-09-21T00:41:30;12.70;;;2.60;;
24034;SDS011;12242;50.952;4.678;2022-09-21T00:47:06;6.55;;;2.88;;
24034;SDS011;12242;50.952;4.678;2022-09-21T00:49:37;5.45;;;2.35;;
24034;SDS011;12242;50.952;4.678;2022-09-21T00:52:07;6.35;;;2.13;;
24034;SDS011;12242;50.952;4.678;2022-09-21T00:54:40;8.07;;;2.35;;
24034;SDS011;12242;50.952;4.678;2022-09-21T00:57:15;6.95;;;2.42;;
24034;SDS011;12242;50.952;4.678;2022-09-21T00:59:45;6.47;;;2.40;;
24034;SDS011;12242;50.952;4.678;2022-09-21T01:02:15;6.55;;;2.28;;
24034;SDS011;12242;50.952;4.678;2022-09-21T01:04:44;6.93;;;2.72;;
24034;SDS011;12242;50.952;4.678;2022-09-21T01:07:16;5.22;;;2.95;;
24034;SDS011;12242;50.952;4.678;2022-09-21T01:09:52;6.20;;;2.53;;
24034;SDS011;12242;50.952;4.678;2022-09-21T01:15:28;5.47;;;2.58;;
24034;SDS011;12242;50.952;4.678;2022-09-21T01:21:05;6.68;;;2.90;;
24034;SDS011;12242;50.952;4.678;2022-09-21T01:23:41;6.80;;;3.10;;
24034;SDS011;12242;50.952;4.678;2022-09-21T01:32:46;5.75;;;2.50;;
24034;SDS011;12242;50.952;4.678;2022-09-21T01:35:19;6.70;;;2.53;;
24034;SDS011;12242;50.952;4.678;2022-09-21T01:37:55;6.82;;;2.63;;
24034;SDS011;12242;50.952;4.678;2022-09-21T01:40:33;7.13;;;2.88;;
24034;SDS011;12242;50.952;4.678;2022-09-21T01:43:04;6.53;;;2.60;;
24034;SDS011;12242;50.952;4.678;2022-09-21T01:45:38;8.65;;;2.53;;
24034;SDS011;12242;50.952;4.678;2022-09-21T01:48:09;6.05;;;2.70;;
24034;SDS011;12242;50.952;4.678;2022-09-21T01:50:41;6.70;;;2.65;;
24034;SDS011;12242;50.952;4.678;2022-09-21T01:53:17;7.25;;;2.63;;
24034;SDS011;12242;50.952;4.678;2022-09-21T01:59:06;5.22;;;2.47;;
24034;SDS011;12242;50.952;4.678;2022-09-21T02:04:11;4.47;;;2.22;;
24034;SDS011;12242;50.952;4.678;2022-09-21T02:06:40;7.88;;;2.38;;
24034;SDS011;12242;50.952;4.678;2022-09-21T02:09:09;5.20;;;2.28;;
24034;SDS011;12242;50.952;4.678;2022-09-21T02:11:37;5.03;;;2.60;;
24034;SDS011;12242;50.952;4.678;2022-09-21T02:14:15;5.65;;;2.60;;
24034;SDS011;12242;50.952;4.678;2022-09-21T02:16:48;7.75;;;2.47;;
24034;SDS011;12242;50.952;4.678;2022-09-21T02:19:27;5.10;;;2.45;;
24034;SDS011;12242;50.952;4.678;2022-09-21T02:22:04;7.13;;;2.63;;
24034;SDS011;12242;50.952;4.678;2022-09-21T02:24:45;4.40;;;2.47;;
24034;SDS011;12242;50.952;4.678;2022-09-21T02:30:15;5.63;;;2.40;;
24034;SDS011;12242;50.952;4.678;2022-09-21T02:40:46;6.43;;;2.85;;
24034;SDS011;12242;50.952;4.678;2022-09-21T02:43:43;6.50;;;3.30;;
24034;SDS011;12242;50.952;4.678;2022-09-21T02:46:24;8.75;;;2.78;;
24034;SDS011;12242;50.952;4.678;2022-09-21T02:49:06;7.97;;;3.17;;
24034;SDS011;12242;50.952;4.678;2022-09-21T02:51:41;6.72;;;2.70;;
24034;SDS011;12242;50.952;4.678;2022-09-21T02:54:13;8.95;;;3.10;;
24034;SDS011;12242;50.952;4.678;2022-09-21T02:56:44;6.80;;;3.10;;
24034;SDS011;12242;50.952;4.678;2022-09-21T02:59:13;11.80;;;3.50;;
24034;SDS011;12242;50.952;4.678;2022-09-21T03:01:42;9.30;;;3.30;;
24034;SDS011;12242;50.952;4.678;2022-09-21T03:04:10;9.20;;;3.50;;
24034;SDS011;12242;50.952;4.678;2022-09-21T03:06:42;10.50;;;3.72;;
24034;SDS011;12242;50.952;4.678;2022-09-21T03:09:09;11.13;;;3.72;;
24034;SDS011;12242;50.952;4.678;2022-09-21T03:11:37;10.27;;;3.92;;
24034;SDS011;12242;50.952;4.678;2022-09-21T03:14:08;8.15;;;2.88;;
24034;SDS011;12242;50.952;4.678;2022-09-21T03:16:35;9.00;;;3.75;;
24034;SDS011;12242;50.952;4.678;2022-09-21T03:19:03;6.82;;;3.28;;
24034;SDS011;12242;50.952;4.678;2022-09-21T03:21:31;6.28;;;2.90;;
24034;SDS011;12242;50.952;4.678;2022-09-21T03:23:58;6.50;;;3.00;;
24034;SDS011;12242;50.952;4.678;2022-09-21T03:26:26;5.72;;;3.20;;
24034;SDS011;12242;50.952;4.678;2022-09-21T03:28:53;6.43;;;2.92;;
24034;SDS011;12242;50.952;4.678;2022-09-21T03:31:20;6.72;;;3.30;;
24034;SDS011;12242;50.952;4.678;2022-09-21T03:33:48;10.10;;;3.28;;
24034;SDS011;12242;50.952;4.678;2022-09-21T03:36:15;6.90;;;3.17;;
24034;SDS011;12242;50.952;4.678;2022-09-21T03:38:43;7.53;;;3.28;;
24034;SDS011;12242;50.952;4.678;2022-09-21T03:41:13;14.23;;;2.97;;
24034;SDS011;12242;50.952;4.678;2022-09-21T03:43:40;6.43;;;3.20;;
24034;SDS011;12242;50.952;4.678;2022-09-21T03:46:08;7.20;;;3.55;;
24034;SDS011;12242;50.952;4.678;2022-09-21T03:48:38;13.60;;;4.40;;
24034;SDS011;12242;50.952;4.678;2022-09-21T03:51:08;12.55;;;4.47;;
24034;SDS011;12242;50.952;4.678;2022-09-21T03:53:37;10.32;;;3.63;;
24034;SDS011;12242;50.952;4.678;2022-09-21T03:56:05;8.30;;;3.58;;
24034;SDS011;12242;50.952;4.678;2022-09-21T03:58:34;10.65;;;3.45;;
24034;SDS011;12242;50.952;4.678;2022-09-21T04:01:07;6.97;;;3.40;;
24034;SDS011;12242;50.952;4.678;2022-09-21T04:03:35;9.13;;;3.58;;
24034;SDS011;12242;50.952;4.678;2022-09-21T04:06:10;7.07;;;2.97;;
24034;SDS011;12242;50.952;4.678;2022-09-21T04:08:38;8.63;;;3.17;;
24034;SDS011;12242;50.952;4.678;2022-09-21T04:11:14;11.02;;;3.33;;
24034;SDS011;12242;50.952;4.678;2022-09-21T04:13:48;7.22;;;2.45;;
24034;SDS011;12242;50.952;4.678;2022-09-21T04:16:18;5.07;;;2.40;;
24034;SDS011;12242;50.952;4.678;2022-09-21T04:18:46;5.80;;;2.95;;
24034;SDS011;12242;50.952;4.678;2022-09-21T04:21:16;6.93;;;3.03;;
24034;SDS011;12242;50.952;4.678;2022-09-21T04:23:43;5.63;;;2.53;;
24034;SDS011;12242;50.952;4.678;2022-09-21T04:26:21;6.32;;;2.50;;
24034;SDS011;12242;50.952;4.678;2022-09-21T04:28:51;6.53;;;2.38;;
24034;SDS011;12242;50.952;4.678;2022-09-21T04:31:21;6.93;;;2.70;;
24034;SDS011;12242;50.952;4.678;2022-09-21T04:33:50;7.28;;;2.63;;
24034;SDS011;12242;50.952;4.678;2022-09-21T04:36:21;6.50;;;2.80;;
24034;SDS011;12242;50.952;4.678;2022-09-21T04:38:50;7.80;;;3.08;;
24034;SDS011;12242;50.952;4.678;2022-09-21T04:41:17;5.85;;;2.72;;
24034;SDS011;12242;50.952;4.678;2022-09-21T04:43:46;6.63;;;2.53;;
24034;SDS011;12242;50.952;4.678;2022-09-21T04:46:15;4.32;;;2.20;;
24034;SDS011;12242;50.952;4.678;2022-09-21T04:48:46;7.15;;;2.88;;
24034;SDS011;12242;50.952;4.678;2022-09-21T04:51:15;8.43;;;2.67;;
24034;SDS011;12242;50.952;4.678;2022-09-21T04:53:43;6.05;;;2.80;;
24034;SDS011;12242;50.952;4.678;2022-09-21T04:56:13;4.85;;;2.30;;
24034;SDS011;12242;50.952;4.678;2022-09-21T04:58:42;8.85;;;2.58;;
24034;SDS011;12242;50.952;4.678;2022-09-21T05:01:10;4.80;;;2.40;;
24034;SDS011;12242;50.952;4.678;2022-09-21T05:03:37;5.28;;;2.53;;
24034;SDS011;12242;50.952;4.678;2022-09-21T05:06:08;5.45;;;2.50;;
24034;SDS011;12242;50.952;4.678;2022-09-21T05:08:39;7.07;;;2.50;;
24034;SDS011;12242;50.952;4.678;2022-09-21T05:11:25;5.80;;;2.38;;
24034;SDS011;12242;50.952;4.678;2022-09-21T05:13:54;4.85;;;2.42;;
24034;SDS011;12242;50.952;4.678;2022-09-21T05:16:22;4.78;;;2.40;;
24034;SDS011;12242;50.952;4.678;2022-09-21T05:18:51;6.25;;;2.65;;
24034;SDS011;12242;50.952;4.678;2022-09-21T05:21:21;5.63;;;2.13;;
24034;SDS011;12242;50.952;4.678;2022-09-21T05:23:49;4.55;;;2.28;;
24034;SDS011;12242;50.952;4.678;2022-09-21T05:26:18;5.43;;;2.70;;
24034;SDS011;12242;50.952;4.678;2022-09-21T05:28:46;6.22;;;2.40;;
24034;SDS011;12242;50.952;4.678;2022-09-21T05:36:44;5.90;;;2.45;;
24034;SDS011;12242;50.952;4.678;2022-09-21T05:39:21;6.05;;;2.42;;
24034;SDS011;12242;50.952;4.678;2022-09-21T05:41:48;6.20;;;3.00;;
24034;SDS011;12242;50.952;4.678;2022-09-21T05:44:19;8.90;;;3.33;;
24034;SDS011;12242;50.952;4.678;2022-09-21T05:52:08;10.20;;;3.38;;
24034;SDS011;12242;50.952;4.678;2022-09-21T05:55:01;8.90;;;3.95;;
24034;SDS011;12242;50.952;4.678;2022-09-21T06:04:28;8.30;;;2.53;;
24034;SDS011;12242;50.952;4.678;2022-09-21T06:06:58;9.32;;;2.67;;
24034;SDS011;12242;50.952;4.678;2022-09-21T06:09:25;4.47;;;2.30;;
24034;SDS011;12242;50.952;4.678;2022-09-21T06:11:56;6.25;;;2.67;;
24034;SDS011;12242;50.952;4.678;2022-09-21T06:14:25;5.95;;;3.08;;
24034;SDS011;12242;50.952;4.678;2022-09-21T06:16:53;7.68;;;2.88;;
24034;SDS011;12242;50.952;4.678;2022-09-21T06:19:21;7.22;;;3.53;;
24034;SDS011;12242;50.952;4.678;2022-09-21T06:21:49;6.75;;;2.97;;
24034;SDS011;12242;50.952;4.678;2022-09-21T06:24:18;7.35;;;2.67;;
24034;SDS011;12242;50.952;4.678;2022-09-21T06:26:45;9.50;;;2.88;;
24034;SDS011;12242;50.952;4.678;2022-09-21T06:29:12;6.38;;;2.75;;
24034;SDS011;12242;50.952;4.678;2022-09-21T06:31:40;5.90;;;2.75;;
24034;SDS011;12242;50.952;4.678;2022-09-21T06:34:07;5.32;;;2.60;;
24034;SDS011;12242;50.952;4.678;2022-09-21T06:36:37;6.15;;;2.78;;
24034;SDS011;12242;50.952;4.678;2022-09-21T06:39:05;7.13;;;2.85;;
24034;SDS011;12242;50.952;4.678;2022-09-21T06:41:32;6.63;;;2.92;;
24034;SDS011;12242;50.952;4.678;2022-09-21T06:44:00;7.00;;;3.53;;
24034;SDS011;12242;50.952;4.678;2022-09-21T06:46:27;6.60;;;2.85;;
24034;SDS011;12242;50.952;4.678;2022-09-21T06:48:59;7.82;;;2.80;;
24034;SDS011;12242;50.952;4.678;2022-09-21T06:51:27;5.85;;;2.72;;
24034;SDS011;12242;50.952;4.678;2022-09-21T06:53:55;6.53;;;2.95;;
24034;SDS011;12242;50.952;4.678;2022-09-21T06:56:26;6.38;;;2.90;;
24034;SDS011;12242;50.952;4.678;2022-09-21T06:58:54;6.32;;;2.72;;
24034;SDS011;12242;50.952;4.678;2022-09-21T07:01:21;7.03;;;3.08;;
24034;SDS011;12242;50.952;4.678;2022-09-21T07:03:50;9.32;;;3.60;;
24034;SDS011;12242;50.952;4.678;2022-09-21T07:06:20;7.50;;;3.25;;
24034;SDS011;12242;50.952;4.678;2022-09-21T07:08:50;7.05;;;3.35;;
24034;SDS011;12242;50.952;4.678;2022-09-21T07:11:38;6.97;;;2.70;;
24034;SDS011;12242;50.952;4.678;2022-09-21T07:14:07;7.85;;;3.22;;
24034;SDS011;12242;50.952;4.678;2022-09-21T07:16:39;7.30;;;3.30;;
24034;SDS011;12242;50.952;4.678;2022-09-21T07:19:07;6.55;;;3.00;;
24034;SDS011;12242;50.952;4.678;2022-09-21T07:21:38;7.60;;;3.05;;
24034;SDS011;12242;50.952;4.678;2022-09-21T07:24:05;6.22;;;3.05;;
24034;SDS011;12242;50.952;4.678;2022-09-21T07:26:38;7.18;;;3.45;;
24034;SDS011;12242;50.952;4.678;2022-09-21T07:29:08;7.13;;;3.53;;
24034;SDS011;12242;50.952;4.678;2022-09-21T07:31:36;5.93;;;3.03;;
24034;SDS011;12242;50.952;4.678;2022-09-21T07:34:05;8.82;;;3.50;;
24034;SDS011;12242;50.952;4.678;2022-09-21T07:36:33;6.40;;;3.20;;
24034;SDS011;12242;50.952;4.678;2022-09-21T07:39:01;5.68;;;3.20;;
24034;SDS011;12242;50.952;4.678;2022-09-21T07:41:29;7.28;;;3.75;;
24034;SDS011;12242;50.952;4.678;2022-09-21T07:43:56;7.97;;;3.85;;
24034;SDS011;12242;50.952;4.678;2022-09-21T07:46:24;8.52;;;4.45;;
24034;SDS011;12242;50.952;4.678;2022-09-21T07:48:54;8.65;;;3.97;;
24034;SDS011;12242;50.952;4.678;2022-09-21T07:51:22;7.88;;;3.92;;
24034;SDS011;12242;50.952;4.678;2022-09-21T07:53:53;9.80;;;4.43;;
24034;SDS011;12242;50.952;4.678;2022-09-21T07:56:24;11.30;;;4.55;;
24034;SDS011;12242;50.952;4.678;2022-09-21T07:58:52;7.35;;;4.03;;
24034;SDS011;12242;50.952;4.678;2022-09-21T08:01:39;12.40;;;4.70;;
24034;SDS011;12242;50.952;4.678;2022-09-21T08:04:10;10.32;;;5.30;;
24034;SDS011;12242;50.952;4.678;2022-09-21T08:06:39;10.02;;;5.15;;
24034;SDS011;12242;50.952;4.678;2022-09-21T08:09:07;11.60;;;5.43;;
24034;SDS011;12242;50.952;4.678;2022-09-21T08:11:35;12.30;;;5.57;;
24034;SDS011;12242;50.952;4.678;2022-09-21T08:14:05;10.95;;;5.72;;
24034;SDS011;12242;50.952;4.678;2022-09-21T08:16:34;10.77;;;5.47;;
24034;SDS011;12242;50.952;4.678;2022-09-21T08:19:06;11.90;;;5.43;;
24034;SDS011;12242;50.952;4.678;2022-09-21T08:21:34;9.20;;;5.00;;
24034;SDS011;12242;50.952;4.678;2022-09-21T08:24:03;9.15;;;4.72;;
24034;SDS011;12242;50.952;4.678;2022-09-21T08:26:31;9.13;;;4.55;;
24034;SDS011;12242;50.952;4.678;2022-09-21T08:29:01;8.23;;;4.78;;
24034;SDS011;12242;50.952;4.678;2022-09-21T08:31:29;10.85;;;4.78;;
24034;SDS011;12242;50.952;4.678;2022-09-21T08:33:57;11.18;;;4.72;;
24034;SDS011;12242;50.952;4.678;2022-09-21T08:36:24;7.57;;;4.20;;
24034;SDS011;12242;50.952;4.678;2022-09-21T08:38:54;8.63;;;3.95;;
24034;SDS011;12242;50.952;4.678;2022-09-21T08:45:14;9.02;;;4.53;;
24034;SDS011;12242;50.952;4.678;2022-09-21T08:47:34;8.90;;;5.25;;
24034;SDS011;12242;50.952;4.678;2022-09-21T08:50:05;9.80;;;4.22;;
24034;SDS011;12242;50.952;4.678;2022-09-21T08:53:06;11.07;;;5.05;;
24034;SDS011;12242;50.952;4.678;2022-09-21T08:55:40;11.05;;;4.03;;
24034;SDS011;12242;50.952;4.678;2022-09-21T08:58:21;8.45;;;3.58;;
24034;SDS011;12242;50.952;4.678;2022-09-21T09:03:58;6.45;;;3.35;;
24034;SDS011;12242;50.952;4.678;2022-09-21T09:15:33;7.88;;;3.25;;
24034;SDS011;12242;50.952;4.678;2022-09-21T09:21:11;5.55;;;3.00;;
24034;SDS011;12242;50.952;4.678;2022-09-21T09:24:01;6.75;;;3.13;;
24034;SDS011;12242;50.952;4.678;2022-09-21T09:26:53;7.78;;;3.13;;
24034;SDS011;12242;50.952;4.678;2022-09-21T09:29:31;7.28;;;2.60;;
24034;SDS011;12242;50.952;4.678;2022-09-21T09:32:09;6.20;;;2.60;;
24034;SDS011;12242;50.952;4.678;2022-09-21T09:34:51;4.60;;;2.33;;
24034;SDS011;12242;50.952;4.678;2022-09-21T09:37:23;5.30;;;2.17;;
24034;SDS011;12242;50.952;4.678;2022-09-21T09:42:37;9.80;;;2.17;;
24034;SDS011;12242;50.952;4.678;2022-09-21T09:51:24;5.18;;;2.05;;
24034;SDS011;12242;50.952;4.678;2022-09-21T09:53:52;4.80;;;1.80;;
24034;SDS011;12242;50.952;4.678;2022-09-21T09:56:24;5.15;;;1.65;;
24034;SDS011;12242;50.952;4.678;2022-09-21T09:58:56;4.00;;;1.42;;
24034;SDS011;12242;50.952;4.678;2022-09-21T10:04:10;7.47;;;1.42;;
24034;SDS011;12242;50.952;4.678;2022-09-21T10:06:39;5.57;;;1.10;;
24034;SDS011;12242;50.952;4.678;2022-09-21T10:11:45;4.25;;;1.25;;
24034;SDS011;12242;50.952;4.678;2022-09-21T10:14:18;4.60;;;1.52;;
24034;SDS011;12242;50.952;4.678;2022-09-21T10:16:49;3.17;;;0.85;;
24034;SDS011;12242;50.952;4.678;2022-09-21T10:19:19;3.58;;;1.00;;
24034;SDS011;12242;50.952;4.678;2022-09-21T10:21:56;3.85;;;1.17;;
24034;SDS011;12242;50.952;4.678;2022-09-21T10:27:00;6.20;;;1.00;;
24034;SDS011;12242;50.952;4.678;2022-09-21T10:29:37;5.15;;;1.30;;
24034;SDS011;12242;50.952;4.678;2022-09-21T10:34:59;7.13;;;1.40;;
24034;SDS011;12242;50.952;4.678;2022-09-21T10:37:37;5.00;;;1.10;;
24034;SDS011;12242;50.952;4.678;2022-09-21T10:42:48;3.95;;;1.20;;
24034;SDS011;12242;50.952;4.678;2022-09-21T10:45:18;3.22;;;1.50;;
24034;SDS011;12242;50.952;4.678;2022-09-21T10:47:48;6.22;;;1.50;;
24034;SDS011;12242;50.952;4.678;2022-09-21T10:50:27;3.33;;;1.17;;
24034;SDS011;12242;50.952;4.678;2022-09-21T10:55:37;3.45;;;0.98;;
24034;SDS011;12242;50.952;4.678;2022-09-21T10:58:28;2.85;;;0.88;;
24034;SDS011;12242;50.952;4.678;2022-09-21T11:01:10;1.58;;;0.68;;
24034;SDS011;12242;50.952;4.678;2022-09-21T11:06:57;3.88;;;1.00;;
24034;SDS011;12242;50.952;4.678;2022-09-21T11:12:35;1.38;;;0.80;;
24034;SDS011;12242;50.952;4.678;2022-09-21T11:15:29;3.70;;;1.00;;
24034;SDS011;12242;50.952;4.678;2022-09-21T11:23:38;6.53;;;1.23;;
24034;SDS011;12242;50.952;4.678;2022-09-21T11:31:43;4.35;;;1.10;;
24034;SDS011;12242;50.952;4.678;2022-09-21T11:34:51;4.65;;;1.00;;
24034;SDS011;12242;50.952;4.678;2022-09-21T11:37:49;4.15;;;1.20;;
24034;SDS011;12242;50.952;4.678;2022-09-21T11:46:32;3.88;;;0.93;;
24034;SDS011;12242;50.952;4.678;2022-09-21T11:49:03;3.25;;;0.73;;
24034;SDS011;12242;50.952;4.678;2022-09-21T11:57:36;3.90;;;0.95;;
24034;SDS011;12242;50.952;4.678;2022-09-21T12:00:18;2.50;;;0.47;;
24034;SDS011;12242;50.952;4.678;2022-09-21T12:05:58;1.92;;;0.68;;
24034;SDS011;12242;50.952;4.678;2022-09-21T12:08:53;3.25;;;0.60;;
24034;SDS011;12242;50.952;4.678;2022-09-21T12:11:42;2.45;;;0.60;;
24034;SDS011;12242;50.952;4.678;2022-09-21T12:14:27;2.75;;;0.75;;
24034;SDS011;12242;50.952;4.678;2022-09-21T12:22:50;2.13;;;0.55;;
24034;SDS011;12242;50.952;4.678;2022-09-21T12:25:24;4.20;;;0.65;;
24034;SDS011;12242;50.952;4.678;2022-09-21T12:27:59;3.22;;;0.68;;
24034;SDS011;12242;50.952;4.678;2022-09-21T12:30:32;2.10;;;0.75;;
24034;SDS011;12242;50.952;4.678;2022-09-21T12:33:09;2.42;;;0.68;;
24034;SDS011;12242;50.952;4.678;2022-09-21T12:35:57;4.22;;;0.73;;
24034;SDS011;12242;50.952;4.678;2022-09-21T12:38:38;4.80;;;0.80;;
24034;SDS011;12242;50.952;4.678;2022-09-21T12:46:24;2.03;;;0.50;;
24034;SDS011;12242;50.952;4.678;2022-09-21T12:48:58;3.40;;;0.73;;
24034;SDS011;12242;50.952;4.678;2022-09-21T12:51:35;2.97;;;0.70;;
24034;SDS011;12242;50.952;4.678;2022-09-21T12:54:22;2.40;;;0.68;;
24034;SDS011;12242;50.952;4.678;2022-09-21T13:00:18;5.17;;;0.80;;
24034;SDS011;12242;50.952;4.678;2022-09-21T13:02:56;3.53;;;0.57;;
24034;SDS011;12242;50.952;4.678;2022-09-21T13:08:33;4.15;;;0.80;;
24034;SDS011;12242;50.952;4.678;2022-09-21T13:11:04;4.32;;;0.57;;
24034;SDS011;12242;50.952;4.678;2022-09-21T13:13:35;2.30;;;0.45;;
24034;SDS011;12242;50.952;4.678;2022-09-21T13:16:05;1.42;;;0.40;;
24034;SDS011;12242;50.952;4.678;2022-09-21T13:18:53;3.40;;;0.52;;
24034;SDS011;12242;50.952;4.678;2022-09-21T13:21:24;0.68;;;0.40;;
24034;SDS011;12242;50.952;4.678;2022-09-21T13:23:58;1.88;;;0.40;;
24034;SDS011;12242;50.952;4.678;2022-09-21T13:26:39;4.65;;;0.47;;
24034;SDS011;12242;50.952;4.678;2022-09-21T13:32:02;2.38;;;0.40;;
24034;SDS011;12242;50.952;4.678;2022-09-21T13:34:50;4.80;;;0.57;;
24034;SDS011;12242;50.952;4.678;2022-09-21T13:40:28;2.75;;;0.43;;
24034;SDS011;12242;50.952;4.678;2022-09-21T13:42:51;3.47;;;0.55;;
24034;SDS011;12242;50.952;4.678;2022-09-21T13:47:50;2.65;;;0.70;;
24034;SDS011;12242;50.952;4.678;2022-09-21T13:50:23;3.75;;;0.60;;
24034;SDS011;12242;50.952;4.678;2022-09-21T13:53:25;2.95;;;0.43;;
24034;SDS011;12242;50.952;4.678;2022-09-21T13:56:06;2.38;;;0.57;;
24034;SDS011;12242;50.952;4.678;2022-09-21T13:58:43;1.27;;;0.45;;
24034;SDS011;12242;50.952;4.678;2022-09-21T14:04:23;1.42;;;0.40;;
24034;SDS011;12242;50.952;4.678;2022-09-21T14:06:56;1.42;;;0.40;;
24034;SDS011;12242;50.952;4.678;2022-09-21T14:09:29;1.55;;;0.50;;
24034;SDS011;12242;50.952;4.678;2022-09-21T14:12:16;4.65;;;0.60;;
24034;SDS011;12242;50.952;4.678;2022-09-21T14:29:23;1.38;;;0.40;;
24034;SDS011;12242;50.952;4.678;2022-09-21T14:31:58;1.65;;;0.50;;
24034;SDS011;12242;50.952;4.678;2022-09-21T14:34:33;2.08;;;0.38;;
24034;SDS011;12242;50.952;4.678;2022-09-21T14:37:04;1.20;;;0.50;;
24034;SDS011;12242;50.952;4.678;2022-09-21T14:39:43;1.83;;;0.40;;
24034;SDS011;12242;50.952;4.678;2022-09-21T14:42:14;4.03;;;0.73;;
24034;SDS011;12242;50.952;4.678;2022-09-21T14:44:45;2.67;;;0.60;;
24034;SDS011;12242;50.952;4.678;2022-09-21T14:50:43;2.22;;;0.50;;
24034;SDS011;12242;50.952;4.678;2022-09-21T15:02:01;3.20;;;0.80;;
24034;SDS011;12242;50.952;4.678;2022-09-21T15:04:54;1.65;;;0.43;;
24034;SDS011;12242;50.952;4.678;2022-09-21T15:11:08;4.95;;;0.75;;
24034;SDS011;12242;50.952;4.678;2022-09-21T15:16:33;4.88;;;0.50;;
24034;SDS011;12242;50.952;4.678;2022-09-21T15:19:14;2.42;;;0.70;;
24034;SDS011;12242;50.952;4.678;2022-09-21T15:21:56;2.03;;;0.60;;
24034;SDS011;12242;50.952;4.678;2022-09-21T15:24:46;6.78;;;0.80;;
24034;SDS011;12242;50.952;4.678;2022-09-21T15:27:30;2.83;;;0.30;;
24034;SDS011;12242;50.952;4.678;2022-09-21T15:30:02;1.45;;;0.40;;
24034;SDS011;12242;50.952;4.678;2022-09-21T15:32:46;1.58;;;0.32;;
24034;SDS011;12242;50.952;4.678;2022-09-21T15:35:42;1.02;;;0.30;;
24034;SDS011;12242;50.952;4.678;2022-09-21T15:38:30;0.65;;;0.40;;
24034;SDS011;12242;50.952;4.678;2022-09-21T15:41:09;1.60;;;0.60;;
24034;SDS011;12242;50.952;4.678;2022-09-21T15:45:00;1.60;;;0.30;;
24034;SDS011;12242;50.952;4.678;2022-09-21T15:47:20;2.15;;;0.30;;
24034;SDS011;12242;50.952;4.678;2022-09-21T15:49:56;2.78;;;0.30;;
24034;SDS011;12242;50.952;4.678;2022-09-21T15:52:35;2.45;;;0.30;;
24034;SDS011;12242;50.952;4.678;2022-09-21T15:58:32;2.15;;;0.50;;
24034;SDS011;12242;50.952;4.678;2022-09-21T16:03:40;1.25;;;0.40;;
24034;SDS011;12242;50.952;4.678;2022-09-21T16:06:22;0.77;;;0.32;;
24034;SDS011;12242;50.952;4.678;2022-09-21T16:08:55;2.17;;;0.68;;
24034;SDS011;12242;50.952;4.678;2022-09-21T16:14:07;4.05;;;0.47;;
24034;SDS011;12242;50.952;4.678;2022-09-21T16:19:38;1.40;;;0.52;;
24034;SDS011;12242;50.952;4.678;2022-09-21T16:22:23;4.10;;;0.85;;
24034;SDS011;12242;50.952;4.678;2022-09-21T16:24:56;5.00;;;0.60;;
24034;SDS011;12242;50.952;4.678;2022-09-21T16:27:29;6.15;;;0.77;;
24034;SDS011;12242;50.952;4.678;2022-09-21T16:29:58;5.68;;;0.85;;
24034;SDS011;12242;50.952;4.678;2022-09-21T16:32:30;2.58;;;0.70;;
24034;SDS011;12242;50.952;4.678;2022-09-21T16:38:04;3.47;;;0.90;;
24034;SDS011;12242;50.952;4.678;2022-09-21T16:40:35;3.65;;;0.65;;
24034;SDS011;12242;50.952;4.678;2022-09-21T16:43:07;4.13;;;0.60;;
24034;SDS011;12242;50.952;4.678;2022-09-21T16:45:38;2.05;;;0.40;;
24034;SDS011;12242;50.952;4.678;2022-09-21T16:48:06;3.22;;;0.70;;
24034;SDS011;12242;50.952;4.678;2022-09-21T16:50:37;2.42;;;0.75;;
24034;SDS011;12242;50.952;4.678;2022-09-21T16:53:05;2.65;;;0.77;;
24034;SDS011;12242;50.952;4.678;2022-09-21T16:55:37;1.67;;;0.55;;
24034;SDS011;12242;50.952;4.678;2022-09-21T17:00:38;2.05;;;0.60;;
24034;SDS011;12242;50.952;4.678;2022-09-21T17:03:07;2.40;;;0.80;;
24034;SDS011;12242;50.952;4.678;2022-09-21T17:05:36;2.00;;;0.63;;
24034;SDS011;12242;50.952;4.678;2022-09-21T17:08:04;1.73;;;0.70;;
24034;SDS011;12242;50.952;4.678;2022-09-21T17:10:33;1.58;;;0.52;;
24034;SDS011;12242;50.952;4.678;2022-09-21T17:13:06;1.67;;;0.60;;
24034;SDS011;12242;50.952;4.678;2022-09-21T17:15:37;1.27;;;0.50;;
24034;SDS011;12242;50.952;4.678;2022-09-21T17:18:09;4.00;;;0.75;;
24034;SDS011;12242;50.952;4.678;2022-09-21T17:20:41;2.88;;;0.77;;
24034;SDS011;12242;50.952;4.678;2022-09-21T17:23:10;4.60;;;0.80;;
24034;SDS011;12242;50.952;4.678;2022-09-21T17:25:38;4.45;;;0.60;;
24034;SDS011;12242;50.952;4.678;2022-09-21T17:28:13;2.15;;;0.70;;
24034;SDS011;12242;50.952;4.678;2022-09-21T17:30:44;2.60;;;0.80;;
24034;SDS011;12242;50.952;4.678;2022-09-21T17:33:12;2.33;;;0.80;;
24034;SDS011;12242;50.952;4.678;2022-09-21T17:35:47;1.88;;;0.95;;
24034;SDS011;12242;50.952;4.678;2022-09-21T17:38:16;2.58;;;0.60;;
24034;SDS011;12242;50.952;4.678;2022-09-21T17:40:46;4.10;;;0.80;;
24034;SDS011;12242;50.952;4.678;2022-09-21T17:46:17;1.42;;;0.60;;
24034;SDS011;12242;50.952;4.678;2022-09-21T17:49:02;2.30;;;0.75;;
24034;SDS011;12242;50.952;4.678;2022-09-21T17:51:30;2.90;;;0.75;;
24034;SDS011;12242;50.952;4.678;2022-09-21T17:54:17;6.03;;;0.80;;
24034;SDS011;12242;50.952;4.678;2022-09-21T17:56:53;2.38;;;0.75;;
24034;SDS011;12242;50.952;4.678;2022-09-21T17:59:33;2.65;;;1.13;;
24034;SDS011;12242;50.952;4.678;2022-09-21T18:02:10;3.40;;;1.00;;
24034;SDS011;12242;50.952;4.678;2022-09-21T18:04:49;2.47;;;0.82;;
24034;SDS011;12242;50.952;4.678;2022-09-21T18:09:50;4.85;;;1.38;;
24034;SDS011;12242;50.952;4.678;2022-09-21T18:12:28;4.53;;;1.20;;
24034;SDS011;12242;50.952;4.678;2022-09-21T18:15:30;5.63;;;1.23;;
24034;SDS011;12242;50.952;4.678;2022-09-21T18:18:16;1.90;;;0.80;;
24034;SDS011;12242;50.952;4.678;2022-09-21T18:21:21;3.80;;;0.90;;
24034;SDS011;12242;50.952;4.678;2022-09-21T18:26:46;3.15;;;0.90;;
24034;SDS011;12242;50.952;4.678;2022-09-21T18:29:19;3.13;;;0.75;;
24034;SDS011;12242;50.952;4.678;2022-09-21T18:39:02;4.70;;;0.90;;
24034;SDS011;12242;50.952;4.678;2022-09-21T18:41:24;3.42;;;1.05;;
24034;SDS011;12242;50.952;4.678;2022-09-21T18:46:49;2.58;;;1.00;;
24034;SDS011;12242;50.952;4.678;2022-09-21T18:49:46;3.63;;;0.90;;
24034;SDS011;12242;50.952;4.678;2022-09-21T18:52:55;3.83;;;1.00;;
24034;SDS011;12242;50.952;4.678;2022-09-21T18:58:06;5.22;;;1.13;;
24034;SDS011;12242;50.952;4.678;2022-09-21T19:00:36;2.75;;;1.30;;
24034;SDS011;12242;50.952;4.678;2022-09-21T19:03:09;4.38;;;1.42;;
24034;SDS011;12242;50.952;4.678;2022-09-21T19:05:50;4.28;;;1.70;;
24034;SDS011;12242;50.952;4.678;2022-09-21T19:15:12;4.18;;;1.85;;
24034;SDS011;12242;50.952;4.678;2022-09-21T19:25:41;4.00;;;1.70;;